sensor_id;sensor_type;location;lat;lon;timestamp;pressure;altitude;pressure_sealevel;temperature;humidity
64551;BME280;50945;44.472;-123.352;2023-04-23T00:01:06;100390.47;;;20.80;68.41
64551;BME280;50945;44.472;-123.352;2023-04-23T00:03:35;100387.19;;;20.66;68.55
64551;BME280;50945;44.472;-123.352;2023-04-23T00:06:07;100386.22;;;20.60;68.74
64551;BME280;50945;44.472;-123.352;2023-04-23T00:08:41;100384.75;;;20.69;68.33
64551;BME280;50945;44.472;-123.352;2023-04-23T00:11:08;100380.97;;;20.76;68.19
64551;BME280;50945;44.472;-123.352;2023-04-23T00:13:35;100377.28;;;20.70;68.06
64551;BME280;50945;44.472;-123.352;2023-04-23T00:16:01;100376.59;;;20.63;67.87
64551;BME280;50945;44.472;-123.352;2023-04-23T00:18:27;100372.44;;;20.48;68.46
64551;BME280;50945;44.472;-123.352;2023-04-23T00:20:54;100376.34;;;20.36;68.89
64551;BME280;50945;44.472;-123.352;2023-04-23T00:23:20;100378.88;;;20.08;62.04
64551;BME280;50945;44.472;-123.352;2023-04-23T00:25:47;100378.81;;;19.91;69.91
64551;BME280;50945;44.472;-123.352;2023-04-23T00:28:17;100370.88;;;19.71;70.10
64551;BME280;50945;44.472;-123.352;2023-04-23T00:30:43;100369.13;;;19.53;70.67
64551;BME280;50945;44.472;-123.352;2023-04-23T00:33:09;100364.31;;;19.25;67.49
64551;BME280;50945;44.472;-123.352;2023-04-23T00:35:36;100363.88;;;19.05;72.29
64551;BME280;50945;44.472;-123.352;2023-04-23T00:38:02;100360.44;;;18.79;73.29
64551;BME280;50945;44.472;-123.352;2023-04-23T00:40:28;100359.94;;;18.58;72.02
64551;BME280;50945;44.472;-123.352;2023-04-23T00:42:55;100367.22;;;18.41;73.96
64551;BME280;50945;44.472;-123.352;2023-04-23T00:45:22;100364.03;;;18.26;74.28
64551;BME280;50945;44.472;-123.352;2023-04-23T00:47:48;100370.31;;;18.02;73.92
64551;BME280;50945;44.472;-123.352;2023-04-23T00:50:15;100361.88;;;17.97;75.27
64551;BME280;50945;44.472;-123.352;2023-04-23T00:52:41;100361.84;;;17.85;75.57
64551;BME280;50945;44.472;-123.352;2023-04-23T00:55:07;100365.13;;;17.76;75.57
64551;BME280;50945;44.472;-123.352;2023-04-23T00:57:35;100370.19;;;17.60;75.83
64551;BME280;50945;44.472;-123.352;2023-04-23T01:00:02;100368.25;;;17.42;76.27
64551;BME280;50945;44.472;-123.352;2023-04-23T01:02:30;100366.03;;;17.33;76.59
64551;BME280;50945;44.472;-123.352;2023-04-23T01:04:56;100355.50;;;17.23;77.92
64551;BME280;50945;44.472;-123.352;2023-04-23T01:07:23;100349.00;;;17.17;77.22
64551;BME280;50945;44.472;-123.352;2023-04-23T01:09:50;100356.50;;;17.10;77.45
64551;BME280;50945;44.472;-123.352;2023-04-23T01:12:19;100354.88;;;17.02;77.60
64551;BME280;50945;44.472;-123.352;2023-04-23T01:14:45;100347.72;;;16.95;77.72
64551;BME280;50945;44.472;-123.352;2023-04-23T01:17:15;100349.75;;;16.81;77.88
64551;BME280;50945;44.472;-123.352;2023-04-23T01:19:41;100339.91;;;16.66;78.31
64551;BME280;50945;44.472;-123.352;2023-04-23T01:22:08;100338.47;;;16.57;79.09
64551;BME280;50945;44.472;-123.352;2023-04-23T01:24:35;100334.03;;;16.56;78.67
64551;BME280;50945;44.472;-123.352;2023-04-23T01:27:01;100321.69;;;16.59;79.03
64551;BME280;50945;44.472;-123.352;2023-04-23T01:29:29;100299.13;;;16.68;78.75
64551;BME280;50945;44.472;-123.352;2023-04-23T01:31:56;100278.81;;;16.81;78.11
64551;BME280;50945;44.472;-123.352;2023-04-23T01:34:22;100264.13;;;16.87;78.27
64551;BME280;50945;44.472;-123.352;2023-04-23T01:36:50;100252.63;;;16.90;77.89
64551;BME280;50945;44.472;-123.352;2023-04-23T01:39:17;100237.59;;;16.86;77.93
64551;BME280;50945;44.472;-123.352;2023-04-23T01:41:43;100236.81;;;16.79;77.91
64551;BME280;50945;44.472;-123.352;2023-04-23T01:44:09;100246.84;;;16.73;78.38
64551;BME280;50945;44.472;-123.352;2023-04-23T01:46:35;100250.28;;;16.69;78.47
64551;BME280;50945;44.472;-123.352;2023-04-23T01:49:01;100249.34;;;16.57;78.88
64551;BME280;50945;44.472;-123.352;2023-04-23T01:51:29;100244.34;;;16.47;78.81
64551;BME280;50945;44.472;-123.352;2023-04-23T01:53:55;100235.25;;;16.40;79.48
64551;BME280;50945;44.472;-123.352;2023-04-23T01:56:25;100231.97;;;16.31;79.25
64551;BME280;50945;44.472;-123.352;2023-04-23T01:58:53;100227.94;;;16.27;79.71
64551;BME280;50945;44.472;-123.352;2023-04-23T02:01:20;100226.72;;;16.23;79.94
64551;BME280;50945;44.472;-123.352;2023-04-23T02:03:49;100227.38;;;16.18;80.35
64551;BME280;50945;44.472;-123.352;2023-04-23T02:06:17;100229.53;;;16.16;80.46
64551;BME280;50945;44.472;-123.352;2023-04-23T02:08:44;100235.34;;;16.08;80.66
64551;BME280;50945;44.472;-123.352;2023-04-23T02:11:10;100234.28;;;16.02;80.81
64551;BME280;50945;44.472;-123.352;2023-04-23T02:13:37;100225.22;;;15.95;80.89
64551;BME280;50945;44.472;-123.352;2023-04-23T02:16:03;100219.31;;;15.91;81.15
64551;BME280;50945;44.472;-123.352;2023-04-23T02:18:29;100220.63;;;15.89;81.48
64551;BME280;50945;44.472;-123.352;2023-04-23T02:20:55;100218.31;;;15.86;81.58
64551;BME280;50945;44.472;-123.352;2023-04-23T02:23:23;100212.84;;;15.79;81.51
64551;BME280;50945;44.472;-123.352;2023-04-23T02:25:49;100223.25;;;15.70;81.88
64551;BME280;50945;44.472;-123.352;2023-04-23T02:28:16;100227.13;;;15.63;82.38
64551;BME280;50945;44.472;-123.352;2023-04-23T02:30:43;100228.00;;;15.56;82.74
64551;BME280;50945;44.472;-123.352;2023-04-23T02:33:12;100218.69;;;15.51;82.40
64551;BME280;50945;44.472;-123.352;2023-04-23T02:35:38;100221.44;;;15.51;82.87
64551;BME280;50945;44.472;-123.352;2023-04-23T02:38:05;100225.28;;;15.50;82.98
64551;BME280;50945;44.472;-123.352;2023-04-23T02:40:31;100221.44;;;15.51;83.23
64551;BME280;50945;44.472;-123.352;2023-04-23T02:42:59;100221.69;;;15.49;83.22
64551;BME280;50945;44.472;-123.352;2023-04-23T02:45:25;100229.31;;;15.47;83.43
64551;BME280;50945;44.472;-123.352;2023-04-23T02:47:52;100216.00;;;15.44;83.46
64551;BME280;50945;44.472;-123.352;2023-04-23T02:50:18;100212.63;;;15.42;83.72
64551;BME280;50945;44.472;-123.352;2023-04-23T02:52:44;100213.91;;;15.39;83.56
64551;BME280;50945;44.472;-123.352;2023-04-23T02:55:10;100206.53;;;15.33;86.77
64551;BME280;50945;44.472;-123.352;2023-04-23T02:57:36;100205.47;;;15.28;84.29
64551;BME280;50945;44.472;-123.352;2023-04-23T03:00:03;100205.53;;;15.21;84.13
64551;BME280;50945;44.472;-123.352;2023-04-23T03:02:33;100200.88;;;15.15;84.30
64551;BME280;50945;44.472;-123.352;2023-04-23T03:04:59;100196.47;;;15.07;84.57
64551;BME280;50945;44.472;-123.352;2023-04-23T03:07:25;100197.13;;;15.02;85.05
64551;BME280;50945;44.472;-123.352;2023-04-23T03:09:51;100197.56;;;14.99;84.55
64551;BME280;50945;44.472;-123.352;2023-04-23T03:12:17;100196.50;;;14.94;84.70
64551;BME280;50945;44.472;-123.352;2023-04-23T03:14:44;100201.81;;;14.89;84.57
64551;BME280;50945;44.472;-123.352;2023-04-23T03:17:10;100203.13;;;14.86;84.66
64551;BME280;50945;44.472;-123.352;2023-04-23T03:19:38;100209.91;;;14.83;84.84
64551;BME280;50945;44.472;-123.352;2023-04-23T03:22:05;100200.84;;;14.76;84.79
64551;BME280;50945;44.472;-123.352;2023-04-23T03:24:33;100209.94;;;14.70;85.49
64551;BME280;50945;44.472;-123.352;2023-04-23T03:27:01;100201.06;;;14.61;85.93
64551;BME280;50945;44.472;-123.352;2023-04-23T03:29:34;100202.53;;;14.57;85.92
64551;BME280;50945;44.472;-123.352;2023-04-23T03:32:02;100187.28;;;14.55;86.09
64551;BME280;50945;44.472;-123.352;2023-04-23T03:34:28;100197.88;;;14.51;85.80
64551;BME280;50945;44.472;-123.352;2023-04-23T03:36:56;100191.13;;;14.47;85.99
64551;BME280;50945;44.472;-123.352;2023-04-23T03:39:24;100200.00;;;14.42;86.79
64551;BME280;50945;44.472;-123.352;2023-04-23T03:41:50;100203.63;;;14.36;87.00
64551;BME280;50945;44.472;-123.352;2023-04-23T03:44:16;100206.38;;;14.30;86.89
64551;BME280;50945;44.472;-123.352;2023-04-23T03:46:45;100202.38;;;14.25;87.03
64551;BME280;50945;44.472;-123.352;2023-04-23T03:49:11;100192.63;;;14.23;87.28
64551;BME280;50945;44.472;-123.352;2023-04-23T03:51:41;100196.44;;;14.22;87.08
64551;BME280;50945;44.472;-123.352;2023-04-23T03:54:07;100203.41;;;14.24;87.09
64551;BME280;50945;44.472;-123.352;2023-04-23T03:56:33;100190.72;;;14.23;86.70
64551;BME280;50945;44.472;-123.352;2023-04-23T03:59:00;100196.44;;;14.22;86.98
64551;BME280;50945;44.472;-123.352;2023-04-23T04:01:26;100197.28;;;14.22;87.32
64551;BME280;50945;44.472;-123.352;2023-04-23T04:03:52;100204.69;;;14.22;87.62
64551;BME280;50945;44.472;-123.352;2023-04-23T04:06:20;100212.09;;;14.21;87.41
64551;BME280;50945;44.472;-123.352;2023-04-23T04:08:46;100200.03;;;14.22;87.51
64551;BME280;50945;44.472;-123.352;2023-04-23T04:11:12;100194.53;;;14.22;88.34
64551;BME280;50945;44.472;-123.352;2023-04-23T04:13:42;100195.41;;;14.16;88.64
64551;BME280;50945;44.472;-123.352;2023-04-23T04:16:09;100191.38;;;14.05;89.04
64551;BME280;50945;44.472;-123.352;2023-04-23T04:18:37;100199.19;;;13.95;89.08
64551;BME280;50945;44.472;-123.352;2023-04-23T04:21:08;100201.50;;;13.85;89.92
64551;BME280;50945;44.472;-123.352;2023-04-23T04:23:34;100209.09;;;13.76;90.45
64551;BME280;50945;44.472;-123.352;2023-04-23T04:26:01;100214.81;;;13.68;91.53
64551;BME280;50945;44.472;-123.352;2023-04-23T04:28:27;100220.25;;;13.55;91.98
64551;BME280;50945;44.472;-123.352;2023-04-23T04:30:54;100221.31;;;13.47;91.94
64551;BME280;50945;44.472;-123.352;2023-04-23T04:33:23;100212.22;;;13.40;92.31
64551;BME280;50945;44.472;-123.352;2023-04-23T04:35:50;100216.19;;;13.37;93.27
64551;BME280;50945;44.472;-123.352;2023-04-23T04:38:16;100216.41;;;13.36;91.78
64551;BME280;50945;44.472;-123.352;2023-04-23T04:40:43;100211.34;;;13.33;92.41
64551;BME280;50945;44.472;-123.352;2023-04-23T04:43:10;100209.19;;;13.28;93.16
64551;BME280;50945;44.472;-123.352;2023-04-23T04:45:37;100210.66;;;13.24;93.57
64551;BME280;50945;44.472;-123.352;2023-04-23T04:48:04;100211.25;;;13.19;93.37
64551;BME280;50945;44.472;-123.352;2023-04-23T04:50:30;100207.00;;;13.10;99.33
64551;BME280;50945;44.472;-123.352;2023-04-23T04:52:56;100203.78;;;13.00;100.00
64551;BME280;50945;44.472;-123.352;2023-04-23T04:55:22;100200.81;;;12.94;100.00
64551;BME280;50945;44.472;-123.352;2023-04-23T04:57:47;100202.47;;;12.89;100.00
64551;BME280;50945;44.472;-123.352;2023-04-23T05:00:22;100206.88;;;12.83;96.66
64551;BME280;50945;44.472;-123.352;2023-04-23T05:02:50;100202.63;;;12.81;96.72
64551;BME280;50945;44.472;-123.352;2023-04-23T05:05:18;100209.19;;;12.80;96.31
64551;BME280;50945;44.472;-123.352;2023-04-23T05:07:46;100206.00;;;12.76;95.71
64551;BME280;50945;44.472;-123.352;2023-04-23T05:10:13;100215.06;;;12.77;95.81
64551;BME280;50945;44.472;-123.352;2023-04-23T05:12:41;100210.22;;;12.79;95.75
64551;BME280;50945;44.472;-123.352;2023-04-23T05:15:09;100204.53;;;12.80;95.04
64551;BME280;50945;44.472;-123.352;2023-04-23T05:17:38;100204.53;;;12.80;95.05
64551;BME280;50945;44.472;-123.352;2023-04-23T05:20:05;100203.91;;;12.78;95.57
64551;BME280;50945;44.472;-123.352;2023-04-23T05:22:38;100195.88;;;12.77;95.47
64551;BME280;50945;44.472;-123.352;2023-04-23T05:25:07;100192.88;;;12.71;96.00
64551;BME280;50945;44.472;-123.352;2023-04-23T05:27:34;100189.50;;;12.69;95.74
64551;BME280;50945;44.472;-123.352;2023-04-23T05:30:08;100192.44;;;12.68;95.92
64551;BME280;50945;44.472;-123.352;2023-04-23T05:32:35;100198.56;;;12.70;96.19
64551;BME280;50945;44.472;-123.352;2023-04-23T05:35:02;100195.44;;;12.73;96.35
64551;BME280;50945;44.472;-123.352;2023-04-23T05:37:28;100204.09;;;12.77;100.00
64551;BME280;50945;44.472;-123.352;2023-04-23T05:39:54;100191.91;;;12.79;97.51
64551;BME280;50945;44.472;-123.352;2023-04-23T05:42:22;100185.97;;;12.82;96.67
64551;BME280;50945;44.472;-123.352;2023-04-23T05:44:48;100178.38;;;12.84;96.44
64551;BME280;50945;44.472;-123.352;2023-04-23T05:47:14;100178.19;;;12.86;96.47
64551;BME280;50945;44.472;-123.352;2023-04-23T05:49:40;100175.03;;;12.89;96.49
64551;BME280;50945;44.472;-123.352;2023-04-23T05:52:06;100177.59;;;12.90;96.51
64551;BME280;50945;44.472;-123.352;2023-04-23T05:54:34;100178.81;;;12.88;96.30
64551;BME280;50945;44.472;-123.352;2023-04-23T05:57:00;100172.50;;;12.87;96.67
64551;BME280;50945;44.472;-123.352;2023-04-23T05:59:27;100183.47;;;12.87;96.83
64551;BME280;50945;44.472;-123.352;2023-04-23T06:01:53;100170.59;;;12.88;97.07
64551;BME280;50945;44.472;-123.352;2023-04-23T06:04:20;100170.59;;;12.88;97.11
64551;BME280;50945;44.472;-123.352;2023-04-23T06:06:46;100167.84;;;12.88;97.49
64551;BME280;50945;44.472;-123.352;2023-04-23T06:09:12;100164.28;;;12.87;97.69
64551;BME280;50945;44.472;-123.352;2023-04-23T06:11:38;100156.88;;;12.88;97.38
64551;BME280;50945;44.472;-123.352;2023-04-23T06:14:05;100160.50;;;12.88;97.44
64551;BME280;50945;44.472;-123.352;2023-04-23T06:16:31;100157.75;;;12.88;97.75
64551;BME280;50945;44.472;-123.352;2023-04-23T06:18:57;100156.03;;;12.87;97.61
64551;BME280;50945;44.472;-123.352;2023-04-23T06:21:24;100151.63;;;12.86;97.38
64551;BME280;50945;44.472;-123.352;2023-04-23T06:23:52;100153.28;;;12.87;97.88
64551;BME280;50945;44.472;-123.352;2023-04-23T06:26:19;100140.66;;;12.86;97.52
64551;BME280;50945;44.472;-123.352;2023-04-23T06:28:45;100154.56;;;12.85;97.16
64551;BME280;50945;44.472;-123.352;2023-04-23T06:31:12;100151.19;;;12.83;97.36
64551;BME280;50945;44.472;-123.352;2023-04-23T06:33:38;100147.78;;;12.81;100.00
64551;BME280;50945;44.472;-123.352;2023-04-23T06:36:05;100147.13;;;12.79;98.72
64551;BME280;50945;44.472;-123.352;2023-04-23T06:38:34;100147.13;;;12.79;98.15
64551;BME280;50945;44.472;-123.352;2023-04-23T06:41:00;100136.38;;;12.77;97.77
64551;BME280;50945;44.472;-123.352;2023-04-23T06:43:26;100145.66;;;12.76;98.46
64551;BME280;50945;44.472;-123.352;2023-04-23T06:45:52;100137.63;;;12.74;98.14
64551;BME280;50945;44.472;-123.352;2023-04-23T06:48:18;100141.41;;;12.73;98.16
64551;BME280;50945;44.472;-123.352;2023-04-23T06:50:50;100146.25;;;12.71;98.65
64551;BME280;50945;44.472;-123.352;2023-04-23T06:53:16;100149.22;;;12.70;98.32
64551;BME280;50945;44.472;-123.352;2023-04-23T06:55:42;100142.25;;;12.67;97.96
64551;BME280;50945;44.472;-123.352;2023-04-23T06:58:10;100136.97;;;12.66;98.02
64551;BME280;50945;44.472;-123.352;2023-04-23T07:00:36;100131.03;;;12.62;98.21
64551;BME280;50945;44.472;-123.352;2023-04-23T07:03:02;100132.50;;;12.58;98.20
64551;BME280;50945;44.472;-123.352;2023-04-23T07:05:28;100123.19;;;12.52;100.00
64551;BME280;50945;44.472;-123.352;2023-04-23T07:07:54;100117.91;;;12.51;100.00
64551;BME280;50945;44.472;-123.352;2023-04-23T07:10:22;100118.31;;;12.48;99.32
64551;BME280;50945;44.472;-123.352;2023-04-23T07:12:48;100118.50;;;12.46;98.25
64551;BME280;50945;44.472;-123.352;2023-04-23T07:15:15;100123.75;;;12.41;97.64
64551;BME280;50945;44.472;-123.352;2023-04-23T07:17:41;100131.94;;;12.34;98.62
64551;BME280;50945;44.472;-123.352;2023-04-23T07:20:09;100127.91;;;12.30;98.19
64551;BME280;50945;44.472;-123.352;2023-04-23T07:22:36;100129.19;;;12.28;98.51
64551;BME280;50945;44.472;-123.352;2023-04-23T07:25:03;100122.63;;;12.29;98.67
64551;BME280;50945;44.472;-123.352;2023-04-23T07:27:31;100127.06;;;12.30;98.51
64551;BME280;50945;44.472;-123.352;2023-04-23T07:29:58;100128.75;;;12.31;98.72
64551;BME280;50945;44.472;-123.352;2023-04-23T07:32:26;100127.28;;;12.28;98.40
64551;BME280;50945;44.472;-123.352;2023-04-23T07:34:54;100123.25;;;12.24;98.76
64551;BME280;50945;44.472;-123.352;2023-04-23T07:37:23;100127.88;;;12.24;98.86
64551;BME280;50945;44.472;-123.352;2023-04-23T07:39:49;100129.56;;;12.25;98.85
64551;BME280;50945;44.472;-123.352;2023-04-23T07:42:16;100120.50;;;12.24;99.05
64551;BME280;50945;44.472;-123.352;2023-04-23T07:44:42;100127.66;;;12.25;99.22
64551;BME280;50945;44.472;-123.352;2023-04-23T07:47:08;100111.63;;;12.22;98.98
64551;BME280;50945;44.472;-123.352;2023-04-23T07:49:35;100121.94;;;12.20;99.20
64551;BME280;50945;44.472;-123.352;2023-04-23T07:52:01;100113.53;;;12.22;99.08
64551;BME280;50945;44.472;-123.352;2023-04-23T07:54:28;100114.16;;;12.24;99.04
64551;BME280;50945;44.472;-123.352;2023-04-23T07:56:54;100111.22;;;12.25;99.07
64551;BME280;50945;44.472;-123.352;2023-04-23T07:59:23;100101.97;;;12.26;99.11
64551;BME280;50945;44.472;-123.352;2023-04-23T08:01:50;100106.59;;;12.26;99.31
64551;BME280;50945;44.472;-123.352;2023-04-23T08:04:17;100105.94;;;12.24;98.96
64551;BME280;50945;44.472;-123.352;2023-04-23T08:06:43;100111.63;;;12.22;99.26
64551;BME280;50945;44.472;-123.352;2023-04-23T08:09:10;100107.00;;;12.23;99.34
64551;BME280;50945;44.472;-123.352;2023-04-23T08:11:36;100112.50;;;12.23;99.66
64551;BME280;50945;44.472;-123.352;2023-04-23T08:14:02;100108.03;;;12.22;99.55
64551;BME280;50945;44.472;-123.352;2023-04-23T08:16:28;100105.69;;;12.18;100.00
64551;BME280;50945;44.472;-123.352;2023-04-23T08:18:54;100112.44;;;12.16;99.80
64551;BME280;50945;44.472;-123.352;2023-04-23T08:21:21;100110.09;;;12.13;99.81
64551;BME280;50945;44.472;-123.352;2023-04-23T08:23:48;100096.16;;;12.08;99.55
64551;BME280;50945;44.472;-123.352;2023-04-23T08:26:14;100097.22;;;12.07;100.00
64551;BME280;50945;44.472;-123.352;2023-04-23T08:28:40;100094.47;;;12.07;100.00
64551;BME280;50945;44.472;-123.352;2023-04-23T08:31:06;100094.47;;;12.07;100.00
64551;BME280;50945;44.472;-123.352;2023-04-23T08:33:33;100098.69;;;12.09;100.00
64551;BME280;50945;44.472;-123.352;2023-04-23T08:35:59;100099.34;;;12.11;100.00
64551;BME280;50945;44.472;-123.352;2023-04-23T08:38:25;100094.06;;;12.10;100.00
64551;BME280;50945;44.472;-123.352;2023-04-23T08:40:55;100090.47;;;12.09;100.00
64551;BME280;50945;44.472;-123.352;2023-04-23T08:43:30;100090.47;;;12.09;100.00
64551;BME280;50945;44.472;-123.352;2023-04-23T08:46:01;100094.91;;;12.10;100.00
64551;BME280;50945;44.472;-123.352;2023-04-23T08:48:29;100090.28;;;12.11;100.00
64551;BME280;50945;44.472;-123.352;2023-04-23T08:50:56;100087.34;;;12.12;100.00
64551;BME280;50945;44.472;-123.352;2023-04-23T08:53:25;100089.25;;;12.12;100.00
64551;BME280;50945;44.472;-123.352;2023-04-23T08:55:58;100091.13;;;12.11;100.00
64551;BME280;50945;44.472;-123.352;2023-04-23T08:58:26;100078.47;;;12.10;100.00
64551;BME280;50945;44.472;-123.352;2023-04-23T09:00:53;100073.19;;;12.09;99.90
64551;BME280;50945;44.472;-123.352;2023-04-23T09:03:21;100083.50;;;12.07;100.00
64551;BME280;50945;44.472;-123.352;2023-04-23T09:05:48;100086.06;;;12.08;100.00
64551;BME280;50945;44.472;-123.352;2023-04-23T09:08:16;100086.91;;;12.09;100.00
64551;BME280;50945;44.472;-123.352;2023-04-23T09:10:44;100081.63;;;12.07;100.00
64551;BME280;50945;44.472;-123.352;2023-04-23T09:13:12;100075.50;;;12.05;100.00
64551;BME280;50945;44.472;-123.352;2023-04-23T09:15:39;100063.69;;;12.05;100.00
64551;BME280;50945;44.472;-123.352;2023-04-23T09:18:09;100073.78;;;12.04;100.00
64551;BME280;50945;44.472;-123.352;2023-04-23T09:20:35;100075.06;;;12.02;100.00
64551;BME280;50945;44.472;-123.352;2023-04-23T09:23:13;100080.91;;;11.98;100.00
64551;BME280;50945;44.472;-123.352;2023-04-23T09:25:40;100083.84;;;11.97;100.00
64551;BME280;50945;44.472;-123.352;2023-04-23T09:28:07;100074.81;;;11.96;100.00
64551;BME280;50945;44.472;-123.352;2023-04-23T09:30:42;100067.41;;;11.97;100.00
64551;BME280;50945;44.472;-123.352;2023-04-23T09:33:13;100063.22;;;11.94;100.00
64551;BME280;50945;44.472;-123.352;2023-04-23T09:35:41;100066.97;;;11.93;100.00
64551;BME280;50945;44.472;-123.352;2023-04-23T09:38:08;100078.13;;;11.92;100.00
64551;BME280;50945;44.472;-123.352;2023-04-23T09:40:35;100079.34;;;11.89;100.00
64551;BME280;50945;44.472;-123.352;2023-04-23T09:43:03;100071.53;;;11.86;100.00
64551;BME280;50945;44.472;-123.352;2023-04-23T09:45:29;100080.19;;;11.83;100.00
64551;BME280;50945;44.472;-123.352;2023-04-23T09:47:58;100075.09;;;11.80;100.00
64551;BME280;50945;44.472;-123.352;2023-04-23T09:50:35;100075.28;;;11.78;100.00
64551;BME280;50945;44.472;-123.352;2023-04-23T09:53:06;100084.09;;;11.74;99.54
64551;BME280;50945;44.472;-123.352;2023-04-23T09:55:34;100079.41;;;11.68;99.32
64551;BME280;50945;44.472;-123.352;2023-04-23T09:58:14;100081.25;;;11.60;98.86
64551;BME280;50945;44.472;-123.352;2023-04-23T10:00:41;100080.56;;;11.52;98.73
64551;BME280;50945;44.472;-123.352;2023-04-23T10:03:08;100084.47;;;11.43;98.87
64551;BME280;50945;44.472;-123.352;2023-04-23T10:05:40;100085.63;;;11.33;99.79
64551;BME280;50945;44.472;-123.352;2023-04-23T10:08:07;100081.59;;;11.29;100.00
64551;BME280;50945;44.472;-123.352;2023-04-23T10:10:33;100080.31;;;11.25;100.00
64551;BME280;50945;44.472;-123.352;2023-04-23T10:12:59;100073.56;;;11.21;100.00
64551;BME280;50945;44.472;-123.352;2023-04-23T10:15:26;100068.47;;;11.18;99.13
64551;BME280;50945;44.472;-123.352;2023-04-23T10:17:53;100069.03;;;11.13;98.36
64551;BME280;50945;44.472;-123.352;2023-04-23T10:20:21;100073.22;;;11.09;98.97
64551;BME280;50945;44.472;-123.352;2023-04-23T10:22:48;100071.91;;;11.05;98.11
64551;BME280;50945;44.472;-123.352;2023-04-23T10:25:15;100078.81;;;11.01;98.37
64551;BME280;50945;44.472;-123.352;2023-04-23T10:27:42;100071.00;;;10.98;98.31
64551;BME280;50945;44.472;-123.352;2023-04-23T10:30:10;100071.19;;;10.96;98.23
64551;BME280;50945;44.472;-123.352;2023-04-23T10:32:38;100067.31;;;10.91;97.97
64551;BME280;50945;44.472;-123.352;2023-04-23T10:35:06;100069.59;;;10.87;97.75
64551;BME280;50945;44.472;-123.352;2023-04-23T10:37:33;100076.50;;;10.83;97.66
64551;BME280;50945;44.472;-123.352;2023-04-23T10:40:14;100076.03;;;10.79;98.39
64551;BME280;50945;44.472;-123.352;2023-04-23T10:42:43;100086.53;;;10.76;97.60
64551;BME280;50945;44.472;-123.352;2023-04-23T10:45:15;100085.59;;;10.69;97.76
64551;BME280;50945;44.472;-123.352;2023-04-23T10:47:43;100085.31;;;10.63;98.03
64551;BME280;50945;44.472;-123.352;2023-04-23T10:52:47;100075.16;;;10.57;98.85
64551;BME280;50945;44.472;-123.352;2023-04-23T10:55:26;100078.09;;;10.56;99.01
64551;BME280;50945;44.472;-123.352;2023-04-23T10:58:06;100077.44;;;10.54;99.37
64551;BME280;50945;44.472;-123.352;2023-04-23T11:03:30;100081.00;;;10.54;100.00
64551;BME280;50945;44.472;-123.352;2023-04-23T11:06:00;100093.84;;;10.54;99.27
64551;BME280;50945;44.472;-123.352;2023-04-23T11:08:28;100088.56;;;10.52;99.33
64551;BME280;50945;44.472;-123.352;2023-04-23T11:10:58;100087.72;;;10.52;99.80
64551;BME280;50945;44.472;-123.352;2023-04-23T11:13:26;100093.19;;;10.52;99.49
64551;BME280;50945;44.472;-123.352;2023-04-23T11:16:16;100093.19;;;10.52;99.64
64551;BME280;50945;44.472;-123.352;2023-04-23T11:19:00;100088.56;;;10.52;99.75
64551;BME280;50945;44.472;-123.352;2023-04-23T11:24:26;100094.50;;;10.56;99.46
64551;BME280;50945;44.472;-123.352;2023-04-23T11:26:52;100097.22;;;10.56;99.34
64551;BME280;50945;44.472;-123.352;2023-04-23T11:29:23;100098.72;;;10.58;99.05
64551;BME280;50945;44.472;-123.352;2023-04-23T11:31:51;100104.00;;;10.60;99.02
64551;BME280;50945;44.472;-123.352;2023-04-23T11:34:18;100104.84;;;10.60;98.78
64551;BME280;50945;44.472;-123.352;2023-04-23T11:36:45;100099.38;;;10.60;98.57
64551;BME280;50945;44.472;-123.352;2023-04-23T11:39:12;100088.44;;;10.60;98.99
64551;BME280;50945;44.472;-123.352;2023-04-23T11:41:39;100094.56;;;10.62;98.88
64551;BME280;50945;44.472;-123.352;2023-04-23T11:44:05;100096.63;;;10.60;98.86
64551;BME280;50945;44.472;-123.352;2023-04-23T11:46:33;100097.50;;;10.61;99.14
64551;BME280;50945;44.472;-123.352;2023-04-23T11:48:59;100086.75;;;10.59;99.34
64551;BME280;50945;44.472;-123.352;2023-04-23T11:51:26;100094.94;;;10.59;99.01
64551;BME280;50945;44.472;-123.352;2023-04-23T11:53:52;100089.50;;;10.59;99.19
64551;BME280;50945;44.472;-123.352;2023-04-23T11:56:18;100086.75;;;10.59;98.90
64551;BME280;50945;44.472;-123.352;2023-04-23T11:58:45;100086.75;;;10.59;98.31
64551;BME280;50945;44.472;-123.352;2023-04-23T12:01:11;100101.25;;;10.60;98.28
64551;BME280;50945;44.472;-123.352;2023-04-23T12:03:38;100106.72;;;10.60;98.46
64551;BME280;50945;44.472;-123.352;2023-04-23T12:06:05;100114.47;;;10.56;97.92
64551;BME280;50945;44.472;-123.352;2023-04-23T12:08:33;100123.25;;;10.52;98.11
64551;BME280;50945;44.472;-123.352;2023-04-23T12:11:03;100127.97;;;10.43;98.76
64551;BME280;50945;44.472;-123.352;2023-04-23T12:13:31;100125.78;;;10.38;99.67
64551;BME280;50945;44.472;-123.352;2023-04-23T12:16:00;100123.44;;;10.35;99.63
64551;BME280;50945;44.472;-123.352;2023-04-23T12:18:27;100129.75;;;10.36;99.89
64551;BME280;50945;44.472;-123.352;2023-04-23T12:20:54;100119.66;;;10.36;99.90
64551;BME280;50945;44.472;-123.352;2023-04-23T12:23:27;100118.44;;;10.39;99.76
64551;BME280;50945;44.472;-123.352;2023-04-23T12:25:54;100118.91;;;10.42;99.43
64551;BME280;50945;44.472;-123.352;2023-04-23T12:28:23;100118.53;;;10.45;99.50